Terminal Aerodrome Forecast
Issued by NWS

Home | Current Version | Previous Version | Text Only | Print | Product List | Glossary On
Versions: 1 2 3 4 5 6 7 8 9 10 11 12 13 14 15 16 17 18
430
FTUS43 KILX 260205 AAA
TAFDEC
TAF AMD
KDEC 260205Z 2602/2624 14008KT P6SM VCSH OVC045
     FM261000 16008KT 2SM -DZ BR BKN008 OVC012
     FM261700 21010KT 5SM BR VCSH OVC018=

USA.gov is the U.S. government's official web portal to all federal, state and local government web resources and services.